Time;durP1;ratioP1;P1;durP2;ratioP2;P2;SDS_P1;SDS_P2;PMS_P1;PMS_P2;Temp;Humidity;BMP_temperature;BMP_pressure;BME280_temperature;BME280_humidity;BME280_pressure;Samples;Min_cycle;Max_cycle;Signal;HPM_P1;HPM_P2
2021/10/09 00:01:11;;;;;;;29.45;20.40;;;;;;;10.57;90.86;103234.38;10309784;28;20489;-68
2021/10/09 00:06:08;;;;;;;31.58;20.63;;;;;;;10.54;91.32;103240.38;10313727;28;20048;-68
2021/10/09 00:11:06;;;;;;;31.48;20.70;;;;;;;10.48;90.22;103233.19;10318299;28;20074;-68
2021/10/09 00:16:03;;;;;;;26.63;18.77;;;;;;;10.43;90.96;103233.13;10308334;28;20809;-68
2021/10/09 00:20:59;;;;;;;30.42;20.67;;;;;;;10.42;90.49;103231.44;10320762;27;20094;-68
2021/10/09 00:25:57;;;;;;;32.95;20.30;;;;;;;10.41;90.65;103235.28;10324976;27;20414;-67
2021/10/09 00:30:53;;;;;;;30.27;20.35;;;;;;;10.32;90.20;103227.50;10308953;28;20741;-67
2021/10/09 00:35:49;;;;;;;33.08;21.85;;;;;;;10.27;90.31;103229.34;10316222;28;20048;-67
2021/10/09 00:40:47;;;;;;;30.95;21.08;;;;;;;10.21;89.85;103231.19;10295139;28;20040;-67
2021/10/09 00:45:52;;;;;;;29.33;20.45;;;;;;;10.17;89.14;103230.03;10307881;28;20048;-66
2021/10/09 00:50:48;;;;;;;31.33;20.52;;;;;;;10.15;89.31;103231.38;10304001;28;20042;-68
2021/10/09 00:55:46;;;;;;;35.83;19.52;;;;;;;10.05;88.47;103227.44;10309064;27;20076;-67
2021/10/09 01:00:43;;;;;;;29.88;20.35;;;;;;;10.01;88.66;103220.00;10300165;27;20082;-67
2021/10/09 01:05:40;;;;;;;35.42;19.50;;;;;;;9.98;88.42;103225.94;10303663;27;20098;-67
2021/10/09 01:10:37;;;;;;;28.27;20.33;;;;;;;9.93;88.46;103231.34;10317104;27;20072;-68
2021/10/09 01:15:35;;;;;;;39.00;20.30;;;;;;;9.86;88.51;103217.84;10295634;28;20139;-69
2021/10/09 01:20:46;;;;;;;28.15;18.30;;;;;;;9.81;87.70;103224.06;10320105;28;20052;-67
2021/10/09 01:25:43;;;;;;;27.80;20.02;;;;;;;9.75;88.37;103216.91;10325638;27;20048;-67
2021/10/09 01:30:39;;;;;;;29.40;19.42;;;;;;;9.73;87.96;103223.69;10327021;27;20506;-67
2021/10/09 01:35:50;;;;;;;34.65;20.75;;;;;;;9.69;88.09;103226.09;10325657;27;20541;-66
2021/10/09 01:40:47;;;;;;;27.90;19.58;;;;;;;9.62;88.26;103219.97;10324064;27;20036;-67
2021/10/09 01:45:44;;;;;;;32.22;20.15;;;;;;;9.55;88.01;103216.59;10329511;28;20040;-67
2021/10/09 01:50:42;;;;;;;30.30;19.80;;;;;;;9.52;88.09;103217.91;10320592;27;20060;-67
2021/10/09 01:55:39;;;;;;;30.75;20.38;;;;;;;9.46;87.69;103225.19;10308113;27;20143;-67
2021/10/09 02:00:35;;;;;;;29.83;20.08;;;;;;;9.40;87.92;103219.88;10324060;27;20090;-67
2021/10/09 02:05:34;;;;;;;32.70;20.67;;;;;;;9.35;88.03;103217.94;10317786;27;20052;-67
2021/10/09 02:10:31;;;;;;;26.27;19.98;;;;;;;9.31;87.74;103218.69;10320532;27;20045;-66
2021/10/09 02:15:34;;;;;;;30.55;19.38;;;;;;;9.27;87.37;103215.59;10332888;27;20132;-68
2021/10/09 02:25:46;;;;;;;32.30;20.50;;;;;;;9.13;86.71;103209.66;10309214;27;20126;-66
2021/10/09 02:30:43;;;;;;;31.05;19.08;;;;;;;9.09;86.83;103210.38;10314521;27;20049;-67
2021/10/09 02:35:40;;;;;;;30.90;19.02;;;;;;;9.05;87.03;103216.34;10312054;27;20447;-68
2021/10/09 02:40:38;;;;;;;29.98;19.08;;;;;;;9.00;86.37;103202.59;10312681;27;20456;-67
2021/10/09 02:45:35;;;;;;;33.67;20.75;;;;;;;8.96;86.47;103201.44;10333565;27;20063;-68
2021/10/09 02:50:31;;;;;;;28.35;19.67;;;;;;;8.90;86.68;103205.16;10319394;27;20496;-68
2021/10/09 02:55:28;;;;;;;29.35;20.08;;;;;;;8.88;86.75;103204.56;10310646;28;20825;-68
2021/10/09 03:00:25;;;;;;;28.30;20.20;;;;;;;8.80;86.81;103205.78;10316199;27;20056;-68
2021/10/09 03:05:21;;;;;;;29.45;18.63;;;;;;;8.76;87.28;103206.53;10323884;28;20083;-68
2021/10/09 03:10:18;;;;;;;29.20;19.08;;;;;;;8.72;86.53;103205.34;10321473;27;20984;-68
2021/10/09 03:15:14;;;;;;;31.27;19.23;;;;;;;8.68;86.78;103202.31;10322364;27;20616;-68
2021/10/09 03:20:12;;;;;;;29.20;18.92;;;;;;;8.61;86.39;103210.63;10323857;27;20127;-68
2021/10/09 03:25:09;;;;;;;28.50;19.73;;;;;;;8.54;86.20;103209.94;10311323;28;20709;-68
2021/10/09 03:30:07;;;;;;;31.13;19.70;;;;;;;8.51;86.77;103212.31;10313815;27;20080;-67
2021/10/09 03:35:04;;;;;;;26.63;17.75;;;;;;;8.45;86.00;103214.13;10323717;27;20044;-67
2021/10/09 03:40:05;;;;;;;28.13;19.40;;;;;;;8.40;85.95;103216.72;10330785;28;20044;-68
2021/10/09 03:45:08;;;;;;;29.20;19.23;;;;;;;8.34;86.02;103217.69;10323160;27;20128;-68
2021/10/09 03:50:19;;;;;;;30.85;19.75;;;;;;;8.30;86.38;103224.69;10310467;27;20106;-68
2021/10/09 03:55:18;;;;;;;29.60;18.23;;;;;;;8.23;86.23;103217.47;10311638;28;20155;-67
2021/10/09 04:00:19;;;;;;;32.42;19.38;;;;;;;8.18;85.85;103214.63;10316060;28;20589;-68
2021/10/09 04:05:16;;;;;;;26.98;18.45;;;;;;;8.12;85.86;103210.16;10311529;27;20075;-68
2021/10/09 04:10:12;;;;;;;25.95;18.30;;;;;;;8.08;85.86;103208.97;10316481;27;21460;-68
2021/10/09 04:15:09;;;;;;;28.65;17.98;;;;;;;8.03;85.47;103206.16;10313369;27;20068;-68
2021/10/09 04:20:06;;;;;;;28.10;18.10;;;;;;;7.96;85.54;103200.84;10307868;28;20083;-67
2021/10/09 04:25:03;;;;;;;26.92;18.13;;;;;;;7.94;85.78;103202.16;10305906;28;20075;-68
2021/10/09 04:30:00;;;;;;;28.25;18.85;;;;;;;7.89;85.64;103199.28;10308789;28;20048;-67
2021/10/09 04:34:56;;;;;;;27.17;17.75;;;;;;;7.85;85.25;103198.13;10304237;28;20049;-68
2021/10/09 04:39:53;;;;;;;33.50;17.98;;;;;;;7.83;85.24;103197.53;10303830;28;20139;-67
2021/10/09 04:44:49;;;;;;;29.10;17.05;;;;;;;7.76;85.16;103206.66;10318086;28;20478;-67
2021/10/09 04:49:46;;;;;;;28.10;17.95;;;;;;;7.73;85.06;103207.13;10312394;27;20086;-67
2021/10/09 04:54:44;;;;;;;28.55;18.45;;;;;;;7.67;85.34;103202.63;10353355;27;21298;-68
2021/10/09 04:59:40;;;;;;;27.90;18.48;;;;;;;7.65;85.10;103214.81;10348439;28;20083;-67
2021/10/09 05:04:37;;;;;;;31.65;18.40;;;;;;;7.60;85.15;103212.81;10329954;28;20101;-67
2021/10/09 05:09:33;;;;;;;30.95;17.60;;;;;;;7.53;85.54;103223.81;10344395;28;20083;-68
2021/10/09 05:14:30;;;;;;;27.08;17.73;;;;;;;7.51;85.46;103227.84;10338521;28;20036;-69
2021/10/09 05:19:26;;;;;;;26.65;17.75;;;;;;;7.47;85.01;103230.22;10337451;27;20470;-70
2021/10/09 05:24:23;;;;;;;30.25;17.58;;;;;;;7.44;84.95;103230.66;10351044;27;20484;-69
2021/10/09 05:29:20;;;;;;;28.83;17.45;;;;;;;7.40;85.39;103228.66;10363751;27;20540;-70
2021/10/09 05:34:17;;;;;;;27.92;17.95;;;;;;;7.37;85.38;103240.84;10332982;28;20051;-70
2021/10/09 05:39:13;;;;;;;29.58;18.17;;;;;;;7.37;85.05;103235.41;10332458;27;20696;-73
2021/10/09 05:44:10;;;;;;;30.42;18.13;;;;;;;7.37;85.35;103235.41;10354236;28;20064;-71
2021/10/09 05:49:07;;;;;;;23.15;16.95;;;;;;;7.36;85.01;103244.63;10340266;28;20044;-71
2021/10/09 06:46:39;;;;;;;27.25;16.13;;;;;;;7.49;87.54;103265.34;10355381;27;20131;-74
2021/10/09 07:02:06;;;;;;;27.27;16.63;;;;;;;7.59;88.47;103287.41;10331511;28;20109;-72
2021/10/09 07:07:06;;;;;;;26.42;15.80;;;;;;;7.64;88.58;103284.78;10335707;27;20127;-74
2021/10/09 07:12:02;;;;;;;26.52;15.98;;;;;;;7.63;88.53;103298.63;10333115;27;20570;-74
2021/10/09 07:16:59;;;;;;;27.77;14.98;;;;;;;7.73;88.31;103296.19;10334520;27;20569;-72
2021/10/09 07:21:55;;;;;;;31.60;16.63;;;;;;;7.71;88.19;103296.41;10340098;27;20048;-72
2021/10/09 07:27:12;;;;;;;25.98;15.32;;;;;;;7.86;88.09;103304.09;10360505;27;20040;-72
2021/10/09 07:32:08;;;;;;;29.80;15.63;;;;;;;7.89;87.82;103303.66;10360831;28;20475;-73
2021/10/09 07:37:05;;;;;;;26.80;15.85;;;;;;;8.00;87.75;103304.69;10358902;27;20109;-75
2021/10/09 07:42:03;;;;;;;27.25;14.45;;;;;;;7.98;86.84;103315.00;10365749;27;20096;-76
2021/10/09 07:47:01;;;;;;;30.52;15.48;;;;;;;8.19;86.54;103321.75;10346109;28;20072;-72
2021/10/09 07:51:58;;;;;;;27.27;14.55;;;;;;;8.09;85.94;103314.19;10364904;28;20069;-75
2021/10/09 07:56:54;;;;;;;25.35;14.82;;;;;;;8.35;86.50;103328.38;10362037;27;20110;-72
2021/10/09 08:01:51;;;;;;;29.33;15.45;;;;;;;8.46;86.53;103313.94;10360600;28;20532;-72
2021/10/09 08:06:48;;;;;;;22.20;13.65;;;;;;;8.56;86.20;103313.31;10348854;27;20531;-73
2021/10/09 08:11:44;;;;;;;21.63;12.93;;;;;;;8.62;85.18;103313.19;10354893;27;20087;-72
2021/10/09 08:16:41;;;;;;;27.70;15.15;;;;;;;8.72;84.61;103311.72;10356303;28;20047;-72
2021/10/09 08:21:41;;;;;;;26.42;13.60;;;;;;;8.81;82.27;103304.81;10343973;28;20493;-72
2021/10/09 08:26:57;;;;;;;29.10;14.45;;;;;;;8.95;83.16;103306.19;10342797;28;20934;-72
2021/10/09 08:42:11;;;;;;;25.92;13.52;;;;;;;9.43;81.71;103299.44;10348918;28;20078;-70
2021/10/09 08:47:11;;;;;;;21.77;11.68;;;;;;;9.60;81.24;103301.34;10343937;27;20555;-71
2021/10/09 08:52:07;;;;;;;21.92;11.57;;;;;;;9.52;79.08;103304.50;10350740;28;20039;-72
2021/10/09 08:57:15;;;;;;;17.13;10.93;;;;;;;9.65;76.47;103305.00;10363365;28;20558;-70
2021/10/09 09:02:22;;;;;;;21.92;11.68;;;;;;;9.66;76.03;103294.88;10347747;28;20144;-71
2021/10/09 09:07:40;;;;;;;25.15;10.68;;;;;;;9.74;75.76;103302.66;10351395;28;20109;-70
2021/10/09 09:43:43;;;;;;;;;;;;;;;10.72;65.11;103275.59;10367638;27;20098;-70
2021/10/09 09:48:44;;;;;;;16.88;7.97;;;;;;;10.88;65.56;103267.53;10358339;27;19963;-71
2021/10/09 09:53:44;;;;;;;14.25;7.15;;;;;;;11.04;62.81;103271.28;10345570;27;20074;-71
2021/10/09 09:58:42;;;;;;;15.30;6.63;;;;;;;11.21;61.36;103260.19;10372718;27;20118;-72
2021/10/09 10:03:46;;;;;;;20.63;7.25;;;;;;;11.33;62.81;103258.94;10356995;27;20478;-71
2021/10/09 10:08:43;;;;;;;21.17;5.78;;;;;;;11.50;58.88;103256.06;10353091;27;20037;-71
2021/10/09 10:13:42;;;;;;;15.13;5.07;;;;;;;11.63;56.20;103256.69;10350217;28;20063;-73
2021/10/09 10:18:44;;;;;;;14.05;5.35;;;;;;;11.74;54.57;103255.69;10361233;27;20055;-71
2021/10/09 10:23:45;;;;;;;10.45;4.60;;;;;;;11.85;55.25;103251.94;10347770;28;20075;-74
2021/10/09 10:28:42;;;;;;;14.30;6.00;;;;;;;11.92;54.62;103260.78;10354728;27;20093;-72
2021/10/09 10:34:00;;;;;;;18.63;9.35;;;;;;;12.06;52.82;103254.81;10359098;28;20044;-71
2021/10/09 10:38:56;;;;;;;13.18;5.88;;;;;;;12.09;52.35;103257.03;10348974;27;20973;-72
2021/10/09 10:43:55;;;;;;;15.30;7.57;;;;;;;12.22;52.87;103248.31;10357922;27;20819;-73
2021/10/09 10:54:15;;;;;;;16.08;7.60;;;;;;;12.50;49.75;103248.97;10347313;27;20454;-73
2021/10/09 10:59:33;;;;;;;11.93;6.18;;;;;;;12.58;50.03;103245.72;10362275;27;20070;-72
2021/10/09 11:04:37;;;;;;;16.20;8.85;;;;;;;12.61;49.78;103242.44;10358691;28;20494;-71
2021/10/09 11:09:36;;;;;;;12.85;6.40;;;;;;;12.71;50.18;103242.44;10334108;27;20044;-72
2021/10/09 11:14:32;;;;;;;9.60;4.28;;;;;;;12.84;49.31;103239.19;10327006;28;20123;-70
2021/10/09 11:19:45;;;;;;;12.68;4.63;;;;;;;12.98;50.20;103235.94;10338422;27;20123;-71
2021/10/09 11:24:47;;;;;;;14.10;4.72;;;;;;;13.11;50.07;103227.16;10340746;27;20040;-71
2021/10/09 11:30:07;;;;;;;9.75;4.88;;;;;;;13.17;51.35;103228.78;10335314;27;20083;-71
2021/10/09 11:35:05;;;;;;;13.88;4.45;;;;;;;13.23;48.49;103224.97;10338637;27;20044;-71
2021/10/09 11:40:03;;;;;;;12.25;4.25;;;;;;;13.40;48.69;103227.44;10354288;28;20043;-72
2021/10/09 11:45:06;;;;;;;13.18;4.50;;;;;;;13.66;47.52;103222.72;10351619;28;20100;-70
2021/10/09 11:55:24;;;;;;;15.48;4.60;;;;;;;14.10;49.95;103227.56;10352855;28;20049;-71
2021/10/09 12:00:27;;;;;;;20.30;5.60;;;;;;;14.31;47.60;103221.97;10370416;27;20536;-71
2021/10/09 12:05:33;;;;;;;12.57;5.00;;;;;;;14.55;48.27;103213.09;10351435;27;20094;-70
2021/10/09 12:10:29;;;;;;;18.25;5.72;;;;;;;14.69;46.37;103214.09;10369864;27;20048;-71
2021/10/09 12:15:26;;;;;;;14.95;5.72;;;;;;;14.99;46.47;103209.47;10363850;27;20044;-71
2021/10/09 12:20:26;;;;;;;10.70;5.18;;;;;;;15.10;48.58;103200.03;10369414;28;20879;-71
2021/10/09 12:25:27;;;;;;;14.63;5.10;;;;;;;15.25;46.52;103208.19;10366739;27;20101;-71
2021/10/09 12:30:35;;;;;;;10.63;4.97;;;;;;;15.55;44.30;103198.78;10343065;27;20055;-71
2021/10/09 12:35:34;;;;;;;16.65;5.68;;;;;;;15.92;43.12;103190.97;10358786;27;20062;-70
2021/10/09 12:40:48;;;;;;;13.75;5.43;;;;;;;16.40;43.80;103188.94;10357485;27;20394;-71
2021/10/09 12:45:45;;;;;;;13.57;5.30;;;;;;;16.99;42.77;103178.44;10360075;27;20104;-71
2021/10/09 12:50:42;;;;;;;12.00;5.15;;;;;;;17.29;40.10;103179.03;10354662;27;20043;-71
2021/10/09 12:55:40;;;;;;;9.43;4.82;;;;;;;17.27;40.98;103177.66;10350893;28;20513;-72
2021/10/09 13:00:38;;;;;;;9.43;3.97;;;;;;;17.34;38.33;103167.88;10356779;27;20502;-71
2021/10/09 13:05:35;;;;;;;13.23;4.97;;;;;;;17.31;38.63;103167.66;10350121;27;20051;-71
2021/10/09 13:10:35;;;;;;;13.35;5.43;;;;;;;17.12;41.21;103164.94;10359830;27;20056;-71
2021/10/09 13:15:32;;;;;;;12.63;5.13;;;;;;;16.98;41.19;103153.84;10353291;27;20506;-71
2021/10/09 13:20:32;;;;;;;12.65;5.25;;;;;;;16.90;40.53;103147.09;10345324;28;20213;-71
2021/10/09 13:25:30;;;;;;;11.30;4.25;;;;;;;17.27;37.87;103145.34;10347029;27;20408;-71
2021/10/09 13:30:27;;;;;;;12.45;4.70;;;;;;;17.28;40.00;103146.97;10356377;27;20070;-70
2021/10/09 13:35:23;;;;;;;11.90;4.95;;;;;;;17.08;34.93;103152.84;10342259;27;20127;-70
2021/10/09 13:40:20;;;;;;;19.55;5.88;;;;;;;16.82;37.47;103145.00;10359686;27;20056;-71
2021/10/09 13:45:17;;;;;;;11.52;5.97;;;;;;;16.89;38.41;103139.91;10357358;27;20056;-71
2021/10/09 13:50:13;;;;;;;17.30;7.90;;;;;;;16.81;36.57;103137.84;10349212;27;20171;-71
2021/10/09 13:55:10;;;;;;;13.18;5.30;;;;;;;16.82;36.96;103140.31;10348087;28;20093;-72
2021/10/09 14:00:07;;;;;;;12.95;3.90;;;;;;;16.86;38.61;103137.75;10368747;28;20043;-71
2021/10/09 14:05:04;;;;;;;11.75;4.57;;;;;;;16.81;36.85;103132.31;10347493;28;20043;-71
2021/10/09 14:10:01;;;;;;;10.15;4.85;;;;;;;16.71;37.91;103127.75;10348932;28;20441;-72
2021/10/09 14:15:01;;;;;;;11.57;4.78;;;;;;;16.69;38.82;103118.94;10361093;27;20082;-71
2021/10/09 14:20:02;;;;;;;13.02;5.38;;;;;;;16.57;39.39;103122.19;10363183;28;20056;-72
2021/10/09 14:24:59;;;;;;;9.27;4.75;;;;;;;16.37;40.57;103116.97;10356889;27;20067;-71
2021/10/09 14:29:57;;;;;;;10.20;4.13;;;;;;;16.34;42.59;103114.81;10347928;28;20501;-70
2021/10/09 14:34:53;;;;;;;11.52;4.78;;;;;;;16.28;42.52;103108.53;10355678;27;20494;-72
2021/10/09 14:39:50;;;;;;;12.70;4.88;;;;;;;16.32;41.61;103108.75;10344623;27;20135;-72
2021/10/09 14:44:48;;;;;;;13.23;5.50;;;;;;;16.21;41.09;103097.03;10365855;27;20039;-73
2021/10/09 14:49:50;;;;;;;9.02;3.90;;;;;;;16.20;44.14;103096.22;10352534;27;20252;-72
2021/10/09 15:21:04;;;;;;;7.47;3.20;;;;;;;15.38;46.79;103090.06;10308499;27;20047;-73
2021/10/09 15:26:00;;;;;;;9.85;3.10;;;;;;;15.27;46.98;103094.88;10338829;27;20040;-72
2021/10/09 15:30:57;;;;;;;9.52;3.50;;;;;;;15.08;46.56;103097.56;10323464;28;20040;-72
2021/10/09 15:35:53;;;;;;;8.15;3.08;;;;;;;14.96;47.03;103095.19;10348563;27;20433;-71
2021/10/09 15:40:51;;;;;;;8.95;3.70;;;;;;;14.89;48.63;103095.50;10335793;28;20558;-72
2021/10/09 15:45:47;;;;;;;7.88;4.13;;;;;;;14.71;48.71;103094.31;10318539;28;20139;-70
2021/10/09 15:50:44;;;;;;;10.70;3.90;;;;;;;14.41;48.65;103095.34;10343266;27;20561;-71
2021/10/09 15:55:41;;;;;;;11.02;4.03;;;;;;;14.33;48.81;103087.69;10326280;27;20521;-71
2021/10/09 16:00:38;;;;;;;7.43;3.92;;;;;;;14.24;51.42;103094.91;10339759;27;20044;-70
2021/10/09 16:05:34;;;;;;;11.48;4.20;;;;;;;14.08;52.87;103097.72;10338247;27;20105;-70
2021/10/09 16:10:31;;;;;;;7.38;3.75;;;;;;;13.93;54.40;103088.75;10336197;28;20041;-76
2021/10/09 16:15:31;;;;;;;11.63;4.40;;;;;;;13.79;54.74;103089.38;10327677;27;20196;-70
2021/10/09 16:20:30;;;;;;;9.65;4.32;;;;;;;13.65;56.24;103083.66;10349244;27;20047;-69
2021/10/09 16:25:26;;;;;;;11.90;4.95;;;;;;;13.48;56.06;103088.66;10337901;28;20047;-71
2021/10/09 16:30:23;;;;;;;10.65;5.13;;;;;;;13.31;55.54;103085.41;10353843;28;20106;-71
2021/10/09 16:35:19;;;;;;;10.18;4.53;;;;;;;13.15;57.75;103084.59;10350680;28;20505;-72
2021/10/09 16:40:16;;;;;;;10.13;5.20;;;;;;;13.00;57.49;103094.50;10344052;27;20398;-71
2021/10/09 16:45:13;;;;;;;13.68;5.70;;;;;;;12.84;58.49;103101.91;10338937;27;20040;-70
2021/10/09 16:50:09;;;;;;;11.60;5.97;;;;;;;12.77;58.92;103100.56;10345589;27;20052;-72
2021/10/09 16:55:06;;;;;;;10.07;5.47;;;;;;;12.66;59.70;103099.72;10329682;27;20139;-70
2021/10/09 17:00:03;;;;;;;14.95;6.00;;;;;;;12.50;59.46;103098.88;10345567;28;20105;-72
2021/10/09 17:05:00;;;;;;;15.02;6.18;;;;;;;12.38;61.02;103099.13;10335914;27;20143;-72
2021/10/09 17:09:57;;;;;;;12.82;6.40;;;;;;;12.28;60.75;103099.13;10335484;28;20048;-72
2021/10/09 17:14:53;;;;;;;13.85;6.55;;;;;;;12.17;60.96;103102.94;10335759;28;20036;-71
2021/10/09 17:19:50;;;;;;;11.65;5.63;;;;;;;12.07;61.99;103102.91;10355887;27;20105;-71
2021/10/09 17:24:47;;;;;;;12.70;6.63;;;;;;;11.99;62.21;103102.34;10357693;27;20052;-70
2021/10/09 17:29:44;;;;;;;13.70;7.05;;;;;;;11.88;62.07;103089.72;10335289;28;20041;-72
2021/10/09 17:34:40;;;;;;;14.88;7.68;;;;;;;11.79;63.23;103097.59;10339892;27;20044;-71
2021/10/09 17:39:37;;;;;;;14.77;7.32;;;;;;;11.68;63.21;103097.81;10344455;27;20109;-71
2021/10/09 17:44:36;;;;;;;15.85;8.00;;;;;;;11.55;63.25;103093.63;10348632;27;20113;-71
2021/10/09 17:49:33;;;;;;;14.90;7.63;;;;;;;11.48;63.26;103102.09;10331315;28;20437;-73
2021/10/09 17:54:30;;;;;;;11.57;6.68;;;;;;;11.38;63.96;103096.56;10341567;28;20048;-71
2021/10/09 17:59:26;;;;;;;16.67;7.30;;;;;;;11.33;64.63;103099.28;10332256;27;20463;-72
2021/10/09 18:04:23;;;;;;;14.07;7.10;;;;;;;11.25;64.49;103108.78;10337664;27;20432;-71
2021/10/09 18:09:19;;;;;;;14.70;6.57;;;;;;;11.18;65.03;103096.44;10335631;27;20113;-70
2021/10/09 18:14:18;;;;;;;14.48;7.95;;;;;;;11.11;64.87;103102.94;10330526;28;20135;-72
2021/10/09 18:19:14;;;;;;;13.77;7.32;;;;;;;11.05;65.33;103106.75;10340273;28;20056;-70
2021/10/09 18:24:11;;;;;;;15.60;7.22;;;;;;;11.01;65.74;103102.88;10337394;28;20139;-71
2021/10/09 18:29:08;;;;;;;14.50;7.30;;;;;;;10.93;65.65;103100.63;10337811;27;20052;-71
2021/10/09 18:34:04;;;;;;;13.30;6.97;;;;;;;10.85;65.94;103104.69;10339202;28;20040;-72
2021/10/09 18:39:01;;;;;;;15.65;7.00;;;;;;;10.80;65.83;103101.09;10324357;28;20052;-72
2021/10/09 18:43:57;;;;;;;15.88;7.35;;;;;;;10.74;65.79;103103.78;10326608;27;20047;-70
2021/10/09 18:48:54;;;;;;;15.93;7.32;;;;;;;10.66;66.61;103096.03;10347506;28;20083;-72
2021/10/09 18:53:51;;;;;;;13.85;7.47;;;;;;;10.56;66.32;103097.84;10329197;28;20462;-71
2021/10/09 18:58:47;;;;;;;14.45;7.20;;;;;;;10.53;66.50;103101.94;10352979;28;20048;-70
2021/10/09 19:03:45;;;;;;;17.20;7.20;;;;;;;10.46;66.31;103102.13;10359060;28;20043;-72
2021/10/09 19:08:41;;;;;;;13.63;7.40;;;;;;;10.40;66.80;103102.38;10344268;28;20082;-71
2021/10/09 19:13:38;;;;;;;17.08;7.03;;;;;;;10.31;67.73;103094.63;10342896;28;20044;-71
2021/10/09 19:18:35;;;;;;;16.45;7.38;;;;;;;10.27;67.57;103093.44;10351510;27;20136;-70
2021/10/09 19:23:32;;;;;;;14.98;6.63;;;;;;;10.18;67.20;103105.91;10355085;27;20109;-71
2021/10/09 19:28:28;;;;;;;12.13;7.07;;;;;;;10.17;68.01;103098.00;10360546;27;20570;-70
2021/10/09 19:33:25;;;;;;;11.27;6.78;;;;;;;10.11;67.57;103094.38;10343095;27;20056;-71
2021/10/09 19:38:21;;;;;;;12.23;7.10;;;;;;;10.10;67.89;103098.19;10322852;28;20078;-71
2021/10/09 19:43:19;;;;;;;18.45;6.50;;;;;;;10.06;68.33;103091.59;10327420;27;20590;-72
2021/10/09 19:48:16;;;;;;;10.52;6.88;;;;;;;10.01;68.10;103094.25;10343085;27;20457;-69
2021/10/09 19:53:33;;;;;;;13.00;6.50;;;;;;;9.96;67.90;103096.94;10341239;27;20134;-71
2021/10/09 19:58:30;;;;;;;13.60;7.70;;;;;;;9.87;68.69;103094.66;10331723;28;20096;-71
2021/10/09 20:03:26;;;;;;;13.32;7.00;;;;;;;9.85;68.36;103099.53;10346101;28;20044;-70
2021/10/09 20:08:23;;;;;;;14.32;7.43;;;;;;;9.85;68.90;103094.06;10325969;28;20041;-72
2021/10/09 20:13:19;;;;;;;12.00;6.95;;;;;;;9.83;68.78;103088.03;10326623;27;20143;-71
2021/10/09 20:18:17;;;;;;;12.75;6.95;;;;;;;9.75;69.01;103085.75;10337235;27;20044;-72
2021/10/09 20:23:18;;;;;;;12.05;7.63;;;;;;;9.65;69.38;103085.63;10327439;28;20083;-71
2021/10/09 20:28:15;;;;;;;12.32;6.93;;;;;;;9.65;68.99;103088.34;10327070;28;20078;-71
2021/10/09 20:33:11;;;;;;;15.68;7.95;;;;;;;9.62;68.81;103086.13;10321842;28;20094;-70
2021/10/09 20:38:08;;;;;;;18.20;7.75;;;;;;;9.57;69.40;103083.34;10335520;27;20070;-70
2021/10/09 20:43:05;;;;;;;11.95;7.57;;;;;;;9.51;69.04;103081.63;10336686;27;20138;-72
2021/10/09 20:48:03;;;;;;;12.13;6.57;;;;;;;9.43;69.13;103078.25;10343544;28;20072;-72
2021/10/09 20:53:00;;;;;;;11.25;7.22;;;;;;;9.41;69.24;103085.84;10336160;28;20048;-69
2021/10/09 20:57:57;;;;;;;12.35;7.80;;;;;;;9.36;69.02;103088.53;10333170;28;20128;-72
2021/10/09 21:02:55;;;;;;;11.63;7.70;;;;;;;9.30;70.04;103088.69;10337876;28;20550;-72
2021/10/09 21:07:51;;;;;;;15.85;7.90;;;;;;;9.27;69.72;103084.56;10331581;28;20041;-71
2021/10/09 21:23:18;;;;;;;18.80;8.38;;;;;;;9.11;70.08;103080.78;10331364;28;20086;-71
2021/10/09 21:28:14;;;;;;;15.63;8.27;;;;;;;9.05;69.99;103082.63;10356636;27;20089;-72
2021/10/09 21:33:11;;;;;;;13.13;8.10;;;;;;;9.00;70.31;103079.78;10363245;27;20047;-71
2021/10/09 21:38:25;;;;;;;15.20;8.70;;;;;;;8.94;70.64;103069.91;10355386;27;20089;-70
2021/10/09 21:43:22;;;;;;;12.75;8.43;;;;;;;8.93;70.42;103062.75;10341916;28;20456;-72
2021/10/09 21:48:19;;;;;;;14.00;8.13;;;;;;;8.89;70.71;103050.72;10344393;27;20560;-71
2021/10/09 21:53:17;;;;;;;14.13;8.38;;;;;;;8.82;70.52;103050.06;10353901;27;20066;-72
2021/10/09 21:58:19;;;;;;;15.15;8.45;;;;;;;8.79;71.02;103048.63;10351350;28;20040;-72
2021/10/09 22:18:57;;;;;;;14.15;8.60;;;;;;;8.59;70.85;103034.69;10347144;27;20150;-68
2021/10/09 22:34:10;;;;;;;19.10;9.30;;;;;;;8.36;71.95;103027.47;10366105;28;20055;-68
2021/10/09 22:39:07;;;;;;;13.88;8.43;;;;;;;8.34;72.27;103022.25;10360886;27;20135;-67
2021/10/09 22:44:05;;;;;;;13.20;8.75;;;;;;;8.33;72.24;103022.47;10349458;27;20047;-68
2021/10/09 22:49:02;;;;;;;16.90;9.07;;;;;;;8.27;72.78;103009.84;10360587;27;20063;-68
2021/10/09 22:53:58;;;;;;;16.63;8.85;;;;;;;8.20;72.32;103016.28;10360418;28;20067;-67
2021/10/09 22:58:55;;;;;;;12.73;7.72;;;;;;;8.19;72.57;102998.28;10364408;27;20067;-68
2021/10/09 23:03:51;;;;;;;17.40;9.30;;;;;;;8.13;72.57;103004.72;10367495;27;20085;-68
2021/10/09 23:08:48;;;;;;;15.63;8.88;;;;;;;8.09;72.85;102998.09;10363206;28;20100;-67
2021/10/09 23:13:44;;;;;;;12.85;8.65;;;;;;;8.01;73.10;103001.22;10354056;28;20124;-67
2021/10/09 23:18:40;;;;;;;19.10;9.30;;;;;;;7.94;73.18;102989.66;10370229;27;20529;-67
2021/10/09 23:23:37;;;;;;;19.35;9.85;;;;;;;7.92;73.26;102991.81;10359349;28;20470;-68
2021/10/09 23:28:34;;;;;;;12.85;8.80;;;;;;;7.87;73.75;102988.97;10362228;28;20127;-68
2021/10/09 23:33:33;;;;;;;13.65;8.50;;;;;;;7.82;73.92;102991.59;10367622;27;20040;-68
2021/10/09 23:38:29;;;;;;;14.73;8.27;;;;;;;7.77;74.12;102985.00;10361424;27;20113;-67
2021/10/09 23:43:26;;;;;;;16.30;9.35;;;;;;;7.73;73.55;102985.72;10360864;27;20456;-68
2021/10/09 23:48:22;;;;;;;12.73;8.70;;;;;;;7.68;73.73;102991.06;10364147;27;20085;-69
2021/10/09 23:53:19;;;;;;;15.68;9.13;;;;;;;7.62;74.29;102987.41;10358102;27;20069;-69
2021/10/09 23:58:15;;;;;;;14.73;8.77;;;;;;;7.58;74.20;102987.06;10344024;27;20044;-69
